sensor_id;sensor_type;location;lat;lon;timestamp;pressure;altitude;pressure_sealevel;temperature;humidity
68169;BME280;54981;50.206;15.978;2022-12-07T00:01:22;98486.00;;;2.29;100.00
68169;BME280;54981;50.206;15.978;2022-12-07T00:03:49;98481.50;;;2.33;100.00
68169;BME280;54981;50.206;15.978;2022-12-07T00:06:16;98483.38;;;2.29;100.00
68169;BME280;54981;50.206;15.978;2022-12-07T00:08:42;98480.84;;;2.26;100.00
68169;BME280;54981;50.206;15.978;2022-12-07T00:11:16;98479.91;;;2.27;100.00
68169;BME280;54981;50.206;15.978;2022-12-07T00:13:43;98486.00;;;2.29;100.00
68169;BME280;54981;50.206;15.978;2022-12-07T00:16:11;98483.47;;;2.26;100.00
68169;BME280;54981;50.206;15.978;2022-12-07T00:18:37;98479.91;;;2.27;100.00
68169;BME280;54981;50.206;15.978;2022-12-07T00:21:14;98481.69;;;2.27;100.00
68169;BME280;54981;50.206;15.978;2022-12-07T00:23:41;98478.97;;;2.30;100.00
68169;BME280;54981;50.206;15.978;2022-12-07T00:26:09;98478.09;;;2.31;100.00
68169;BME280;54981;50.206;15.978;2022-12-07T00:28:35;98475.44;;;2.31;100.00
68169;BME280;54981;50.206;15.978;2022-12-07T00:31:09;98468.38;;;2.33;100.00
68169;BME280;54981;50.206;15.978;2022-12-07T00:33:35;98472.66;;;2.35;100.00
68169;BME280;54981;50.206;15.978;2022-12-07T00:36:02;98471.88;;;2.33;100.00
68169;BME280;54981;50.206;15.978;2022-12-07T00:38:29;98470.94;;;2.34;100.00
68169;BME280;54981;50.206;15.978;2022-12-07T00:41:00;98478.00;;;2.32;100.00
68169;BME280;54981;50.206;15.978;2022-12-07T00:43:27;98472.91;;;2.28;100.00
68169;BME280;54981;50.206;15.978;2022-12-07T00:45:53;98467.41;;;2.35;100.00
68169;BME280;54981;50.206;15.978;2022-12-07T00:48:19;98473.72;;;2.30;100.00
68169;BME280;54981;50.206;15.978;2022-12-07T00:50:44;98470.22;;;2.29;100.00
68169;BME280;54981;50.206;15.978;2022-12-07T00:53:10;98471.94;;;2.30;100.00
68169;BME280;54981;50.206;15.978;2022-12-07T00:55:35;98465.81;;;2.31;100.00
68169;BME280;54981;50.206;15.978;2022-12-07T00:58:01;98472.75;;;2.32;100.00
68169;BME280;54981;50.206;15.978;2022-12-07T01:00:27;98474.41;;;2.37;100.00
68169;BME280;54981;50.206;15.978;2022-12-07T01:02:52;98466.44;;;2.38;100.00
68169;BME280;54981;50.206;15.978;2022-12-07T01:05:18;98480.47;;;2.39;100.00
68169;BME280;54981;50.206;15.978;2022-12-07T01:07:43;98484.91;;;2.37;100.00
68169;BME280;54981;50.206;15.978;2022-12-07T01:10:09;98478.13;;;2.29;100.00
68169;BME280;54981;50.206;15.978;2022-12-07T01:12:35;98480.75;;;2.29;100.00
68169;BME280;54981;50.206;15.978;2022-12-07T01:15:00;98481.38;;;2.38;100.00
68169;BME280;54981;50.206;15.978;2022-12-07T01:17:25;98473.59;;;2.34;100.00
68169;BME280;54981;50.206;15.978;2022-12-07T01:19:51;98477.91;;;2.35;100.00
68169;BME280;54981;50.206;15.978;2022-12-07T01:22:16;98481.38;;;2.38;100.00
68169;BME280;54981;50.206;15.978;2022-12-07T01:24:42;98476.22;;;2.34;100.00
68169;BME280;54981;50.206;15.978;2022-12-07T01:27:07;98485.06;;;2.30;100.00
68169;BME280;54981;50.206;15.978;2022-12-07T01:29:32;98486.97;;;2.25;100.00
68169;BME280;54981;50.206;15.978;2022-12-07T01:31:58;98484.09;;;2.34;100.00
68169;BME280;54981;50.206;15.978;2022-12-07T01:34:23;98481.44;;;2.36;100.00
68169;BME280;54981;50.206;15.978;2022-12-07T01:36:48;98478.13;;;2.29;100.00
68169;BME280;54981;50.206;15.978;2022-12-07T01:39:14;98490.31;;;2.30;100.00
68169;BME280;54981;50.206;15.978;2022-12-07T01:41:40;98482.53;;;2.27;100.00
68169;BME280;54981;50.206;15.978;2022-12-07T01:46:40;98480.00;;;2.24;100.00
68169;BME280;54981;50.206;15.978;2022-12-07T01:49:10;98484.41;;;2.24;100.00
68169;BME280;54981;50.206;15.978;2022-12-07T01:51:38;98483.28;;;2.32;100.00
68169;BME280;54981;50.206;15.978;2022-12-07T01:54:06;98482.44;;;2.30;100.00
68169;BME280;54981;50.206;15.978;2022-12-07T01:56:33;98486.75;;;2.33;100.00
68169;BME280;54981;50.206;15.978;2022-12-07T01:58:59;98486.88;;;2.28;100.00
68169;BME280;54981;50.206;15.978;2022-12-07T02:01:25;98485.16;;;2.27;100.00
68169;BME280;54981;50.206;15.978;2022-12-07T02:03:51;98485.16;;;2.27;100.00
68169;BME280;54981;50.206;15.978;2022-12-07T02:06:20;98477.19;;;2.30;100.00
68169;BME280;54981;50.206;15.978;2022-12-07T02:08:46;98485.28;;;2.24;100.00
68169;BME280;54981;50.206;15.978;2022-12-07T02:11:12;98484.34;;;2.25;100.00
68169;BME280;54981;50.206;15.978;2022-12-07T02:13:39;98484.53;;;2.19;100.00
68169;BME280;54981;50.206;15.978;2022-12-07T02:22:29;98487.28;;;2.15;100.00
68169;BME280;54981;50.206;15.978;2022-12-07T02:27:50;98482.88;;;2.17;100.00
68169;BME280;54981;50.206;15.978;2022-12-07T02:30:22;98474.94;;;2.18;100.00
68169;BME280;54981;50.206;15.978;2022-12-07T02:38:15;98484.53;;;2.19;100.00
68169;BME280;54981;50.206;15.978;2022-12-07T02:40:59;98481.84;;;2.21;100.00
68169;BME280;54981;50.206;15.978;2022-12-07T02:43:30;98486.25;;;2.20;100.00
68169;BME280;54981;50.206;15.978;2022-12-07T02:46:01;98488.75;;;2.25;100.00
68169;BME280;54981;50.206;15.978;2022-12-07T02:48:28;98484.34;;;2.25;100.00
68169;BME280;54981;50.206;15.978;2022-12-07T02:50:54;98478.28;;;2.23;100.00
68169;BME280;54981;50.206;15.978;2022-12-07T02:55:54;98485.34;;;2.21;100.00
68169;BME280;54981;50.206;15.978;2022-12-07T03:01:11;98486.25;;;2.20;100.00
68169;BME280;54981;50.206;15.978;2022-12-07T03:03:44;98476.56;;;2.22;100.00
68169;BME280;54981;50.206;15.978;2022-12-07T03:06:34;98478.38;;;2.20;100.00
68169;BME280;54981;50.206;15.978;2022-12-07T03:12:01;98470.19;;;2.31;100.00
68169;BME280;54981;50.206;15.978;2022-12-07T03:14:36;98474.75;;;2.24;100.00
68169;BME280;54981;50.206;15.978;2022-12-07T03:17:14;98473.09;;;2.22;100.00
68169;BME280;54981;50.206;15.978;2022-12-07T03:19:43;98466.88;;;2.24;100.00
68169;BME280;54981;50.206;15.978;2022-12-07T03:22:12;98473.97;;;2.21;100.00
68169;BME280;54981;50.206;15.978;2022-12-07T03:24:45;98467.91;;;2.19;100.00
68169;BME280;54981;50.206;15.978;2022-12-07T03:27:16;98464.41;;;2.18;100.00
68169;BME280;54981;50.206;15.978;2022-12-07T03:29:51;98467.13;;;2.17;100.00
68169;BME280;54981;50.206;15.978;2022-12-07T03:32:24;98469.66;;;2.18;100.00
68169;BME280;54981;50.206;15.978;2022-12-07T03:35:14;98457.38;;;2.20;100.00
68169;BME280;54981;50.206;15.978;2022-12-07T03:37:48;98455.56;;;2.22;100.00
68169;BME280;54981;50.206;15.978;2022-12-07T03:40:40;98448.41;;;2.27;100.00
68169;BME280;54981;50.206;15.978;2022-12-07T03:43:04;98442.97;;;2.33;100.00
68169;BME280;54981;50.206;15.978;2022-12-07T03:54:05;98445.75;;;2.29;100.00
68169;BME280;54981;50.206;15.978;2022-12-07T03:56:33;98450.22;;;2.25;100.00
68169;BME280;54981;50.206;15.978;2022-12-07T03:59:00;98451.94;;;2.26;100.00
68169;BME280;54981;50.206;15.978;2022-12-07T04:01:25;98455.47;;;2.25;100.00
68169;BME280;54981;50.206;15.978;2022-12-07T04:03:51;98447.53;;;2.27;100.00
68169;BME280;54981;50.206;15.978;2022-12-07T04:06:16;98446.50;;;2.32;100.00
68169;BME280;54981;50.206;15.978;2022-12-07T04:08:42;98445.63;;;2.32;100.00
68169;BME280;54981;50.206;15.978;2022-12-07T04:11:07;98446.41;;;2.35;100.00
68169;BME280;54981;50.206;15.978;2022-12-07T04:13:32;98444.78;;;2.31;100.00
68169;BME280;54981;50.206;15.978;2022-12-07T04:16:18;98446.50;;;2.32;100.00
68169;BME280;54981;50.206;15.978;2022-12-07T04:18:43;98446.47;;;2.34;100.00
68169;BME280;54981;50.206;15.978;2022-12-07T04:21:08;98436.94;;;2.30;100.00
68169;BME280;54981;50.206;15.978;2022-12-07T04:23:34;98440.34;;;2.33;100.00
68169;BME280;54981;50.206;15.978;2022-12-07T04:25:59;98446.47;;;2.34;100.00
68169;BME280;54981;50.206;15.978;2022-12-07T04:28:24;98441.06;;;2.39;100.00
68169;BME280;54981;50.206;15.978;2022-12-07T04:30:50;98443.72;;;2.37;100.00
68169;BME280;54981;50.206;15.978;2022-12-07T04:33:15;98429.03;;;2.31;100.00
68169;BME280;54981;50.206;15.978;2022-12-07T04:35:42;98422.84;;;2.32;100.00
68169;BME280;54981;50.206;15.978;2022-12-07T04:38:08;98434.19;;;2.34;100.00
68169;BME280;54981;50.206;15.978;2022-12-07T04:40:33;98435.97;;;2.32;100.00
68169;BME280;54981;50.206;15.978;2022-12-07T04:42:59;98432.47;;;2.33;100.00
68169;BME280;54981;50.206;15.978;2022-12-07T04:45:24;98440.34;;;2.33;100.00
68169;BME280;54981;50.206;15.978;2022-12-07T04:47:50;98438.56;;;2.34;100.00
68169;BME280;54981;50.206;15.978;2022-12-07T04:50:15;98443.03;;;2.30;100.00
68169;BME280;54981;50.206;15.978;2022-12-07T04:52:40;98434.28;;;2.31;100.00
68169;BME280;54981;50.206;15.978;2022-12-07T04:55:06;98438.69;;;2.31;100.00
68169;BME280;54981;50.206;15.978;2022-12-07T04:57:32;98436.78;;;2.36;100.00
68169;BME280;54981;50.206;15.978;2022-12-07T04:59:57;98441.34;;;2.29;100.00
68169;BME280;54981;50.206;15.978;2022-12-07T05:02:22;98437.78;;;2.30;100.00
68169;BME280;54981;50.206;15.978;2022-12-07T05:04:48;98435.97;;;2.32;100.00
68169;BME280;54981;50.206;15.978;2022-12-07T05:07:13;98440.28;;;2.35;100.00
68169;BME280;54981;50.206;15.978;2022-12-07T05:09:39;98431.72;;;2.28;100.00
68169;BME280;54981;50.206;15.978;2022-12-07T05:12:04;98430.88;;;2.28;100.00
68169;BME280;54981;50.206;15.978;2022-12-07T05:14:30;98433.44;;;2.31;100.00
68169;BME280;54981;50.206;15.978;2022-12-07T05:16:55;98423.00;;;2.28;100.00
68169;BME280;54981;50.206;15.978;2022-12-07T05:19:20;98433.47;;;2.29;100.00
68169;BME280;54981;50.206;15.978;2022-12-07T05:21:46;98435.25;;;2.27;100.00
68169;BME280;54981;50.206;15.978;2022-12-07T05:24:13;98438.63;;;2.32;100.00
68169;BME280;54981;50.206;15.978;2022-12-07T05:26:39;98440.41;;;2.30;100.00
68169;BME280;54981;50.206;15.978;2022-12-07T05:29:05;98442.97;;;2.33;100.00
68169;BME280;54981;50.206;15.978;2022-12-07T05:31:30;98437.88;;;2.27;100.00
68169;BME280;54981;50.206;15.978;2022-12-07T05:33:56;98437.94;;;2.26;100.00
68169;BME280;54981;50.206;15.978;2022-12-07T05:36:21;98446.00;;;2.20;100.00
68169;BME280;54981;50.206;15.978;2022-12-07T05:38:47;98435.44;;;2.21;100.00
68169;BME280;54981;50.206;15.978;2022-12-07T05:41:15;98436.25;;;2.23;100.00
68169;BME280;54981;50.206;15.978;2022-12-07T05:43:59;98436.31;;;2.22;100.00
68169;BME280;54981;50.206;15.978;2022-12-07T05:46:25;98432.19;;;2.13;100.00
68169;BME280;54981;50.206;15.978;2022-12-07T05:48:50;98436.44;;;2.17;100.00
68169;BME280;54981;50.206;15.978;2022-12-07T05:51:16;98427.66;;;2.18;100.00
68169;BME280;54981;50.206;15.978;2022-12-07T05:53:41;98428.31;;;2.26;100.00
68169;BME280;54981;50.206;15.978;2022-12-07T05:56:06;98430.81;;;2.31;100.00
68169;BME280;54981;50.206;15.978;2022-12-07T05:58:32;98431.69;;;2.30;100.00
68169;BME280;54981;50.206;15.978;2022-12-07T06:01:15;98431.78;;;2.27;100.00
68169;BME280;54981;50.206;15.978;2022-12-07T06:03:41;98423.84;;;2.28;100.00
68169;BME280;54981;50.206;15.978;2022-12-07T06:06:06;98427.28;;;2.30;100.00
68169;BME280;54981;50.206;15.978;2022-12-07T06:08:31;98431.66;;;2.31;100.00
68169;BME280;54981;50.206;15.978;2022-12-07T06:10:57;98433.44;;;2.31;100.00
68169;BME280;54981;50.206;15.978;2022-12-07T06:13:41;98429.78;;;2.35;100.00
68169;BME280;54981;50.206;15.978;2022-12-07T06:16:06;98428.97;;;2.33;100.00
68169;BME280;54981;50.206;15.978;2022-12-07T06:18:32;98425.44;;;2.34;100.00
68169;BME280;54981;50.206;15.978;2022-12-07T06:20:59;98420.19;;;2.34;100.00
68169;BME280;54981;50.206;15.978;2022-12-07T06:23:24;98422.81;;;2.34;100.00
68169;BME280;54981;50.206;15.978;2022-12-07T06:25:49;98423.66;;;2.34;100.00
68169;BME280;54981;50.206;15.978;2022-12-07T06:28:15;98426.44;;;2.30;100.00
68169;BME280;54981;50.206;15.978;2022-12-07T06:30:40;98418.59;;;2.28;100.00
68169;BME280;54981;50.206;15.978;2022-12-07T06:33:05;98425.47;;;2.32;100.00
68169;BME280;54981;50.206;15.978;2022-12-07T06:35:32;98428.06;;;2.34;100.00
68169;BME280;54981;50.206;15.978;2022-12-07T06:37:58;98425.47;;;2.32;100.00
68169;BME280;54981;50.206;15.978;2022-12-07T06:40:23;98425.53;;;2.31;100.00
68169;BME280;54981;50.206;15.978;2022-12-07T06:42:48;98430.81;;;2.31;100.00
68169;BME280;54981;50.206;15.978;2022-12-07T06:45:14;98427.25;;;2.32;100.00
68169;BME280;54981;50.206;15.978;2022-12-07T06:47:39;98426.41;;;2.31;100.00
68169;BME280;54981;50.206;15.978;2022-12-07T06:50:05;98424.59;;;2.33;100.00
68169;BME280;54981;50.206;15.978;2022-12-07T06:52:32;98422.84;;;2.32;100.00
68169;BME280;54981;50.206;15.978;2022-12-07T06:54:58;98436.09;;;2.29;100.00
68169;BME280;54981;50.206;15.978;2022-12-07T06:57:23;98429.03;;;2.31;100.00
68169;BME280;54981;50.206;15.978;2022-12-07T06:59:49;98434.34;;;2.28;100.00
68169;BME280;54981;50.206;15.978;2022-12-07T07:02:14;98431.72;;;2.28;100.00
68169;BME280;54981;50.206;15.978;2022-12-07T07:04:39;98431.09;;;2.20;100.00
68169;BME280;54981;50.206;15.978;2022-12-07T07:07:05;98426.84;;;2.16;100.00
68169;BME280;54981;50.206;15.978;2022-12-07T07:09:30;98439.09;;;2.16;100.00
68169;BME280;54981;50.206;15.978;2022-12-07T07:11:55;98422.59;;;2.12;100.00
68169;BME280;54981;50.206;15.978;2022-12-07T07:14:21;98424.50;;;2.07;100.00
68169;BME280;54981;50.206;15.978;2022-12-07T07:16:46;98424.56;;;2.04;100.00
68169;BME280;54981;50.206;15.978;2022-12-07T07:19:12;98430.59;;;2.07;100.00
68169;BME280;54981;50.206;15.978;2022-12-07T07:21:37;98429.75;;;2.07;100.00
68169;BME280;54981;50.206;15.978;2022-12-07T07:24:03;98434.84;;;2.11;100.00
68169;BME280;54981;50.206;15.978;2022-12-07T07:26:28;98440.88;;;2.15;100.00
68169;BME280;54981;50.206;15.978;2022-12-07T07:28:53;98442.72;;;2.11;100.00
68169;BME280;54981;50.206;15.978;2022-12-07T07:31:19;98443.53;;;2.13;100.00
68169;BME280;54981;50.206;15.978;2022-12-07T07:33:45;98439.09;;;2.16;100.00
68169;BME280;54981;50.206;15.978;2022-12-07T07:36:11;98447.03;;;2.14;100.00
68169;BME280;54981;50.206;15.978;2022-12-07T07:38:37;98447.84;;;2.16;100.00
68169;BME280;54981;50.206;15.978;2022-12-07T07:41:02;98447.78;;;2.19;100.00
68169;BME280;54981;50.206;15.978;2022-12-07T07:43:27;98446.00;;;2.20;100.00
68169;BME280;54981;50.206;15.978;2022-12-07T07:45:53;98442.38;;;2.24;100.00
68169;BME280;54981;50.206;15.978;2022-12-07T07:48:18;98442.22;;;2.28;100.00
68169;BME280;54981;50.206;15.978;2022-12-07T07:50:43;98443.19;;;2.26;100.00
68169;BME280;54981;50.206;15.978;2022-12-07T07:53:09;98445.88;;;2.24;100.00
68169;BME280;54981;50.206;15.978;2022-12-07T07:55:34;98452.84;;;2.25;100.00
68169;BME280;54981;50.206;15.978;2022-12-07T07:57:59;98446.63;;;2.28;100.00
68169;BME280;54981;50.206;15.978;2022-12-07T08:00:25;98450.09;;;2.28;100.00
68169;BME280;54981;50.206;15.978;2022-12-07T08:02:50;98451.72;;;2.34;100.00
68169;BME280;54981;50.206;15.978;2022-12-07T08:05:16;98454.28;;;2.35;100.00
68169;BME280;54981;50.206;15.978;2022-12-07T08:07:41;98460.28;;;2.41;100.00
68169;BME280;54981;50.206;15.978;2022-12-07T08:10:08;98456.75;;;2.40;100.00
68169;BME280;54981;50.206;15.978;2022-12-07T08:12:39;98458.38;;;2.46;100.00
68169;BME280;54981;50.206;15.978;2022-12-07T08:15:26;98451.91;;;2.56;100.00
68169;BME280;54981;50.206;15.978;2022-12-07T08:17:52;98453.84;;;2.51;100.00
68169;BME280;54981;50.206;15.978;2022-12-07T08:20:17;98457.44;;;2.47;100.00
68169;BME280;54981;50.206;15.978;2022-12-07T08:22:42;98456.72;;;2.42;100.00
68169;BME280;54981;50.206;15.978;2022-12-07T08:25:08;98465.34;;;2.47;100.00
68169;BME280;54981;50.206;15.978;2022-12-07T08:27:33;98458.28;;;2.49;100.00
68169;BME280;54981;50.206;15.978;2022-12-07T08:29:58;98459.91;;;2.53;100.00
68169;BME280;54981;50.206;15.978;2022-12-07T08:32:24;98465.06;;;2.56;100.00
68169;BME280;54981;50.206;15.978;2022-12-07T08:34:49;98466.25;;;2.74;100.00
68169;BME280;54981;50.206;15.978;2022-12-07T08:37:15;98465.69;;;2.92;100.00
68169;BME280;54981;50.206;15.978;2022-12-07T08:39:40;98455.59;;;3.07;100.00
68169;BME280;54981;50.206;15.978;2022-12-07T08:42:05;98453.66;;;3.12;100.00
68169;BME280;54981;50.206;15.978;2022-12-07T08:44:31;98454.31;;;3.18;100.00
68169;BME280;54981;50.206;15.978;2022-12-07T08:46:59;98455.00;;;3.25;100.00
68169;BME280;54981;50.206;15.978;2022-12-07T08:49:39;98455.16;;;3.46;100.00
68169;BME280;54981;50.206;15.978;2022-12-07T08:52:05;98448.63;;;3.57;100.00
68169;BME280;54981;50.206;15.978;2022-12-07T08:54:33;98455.00;;;3.50;100.00
68169;BME280;54981;50.206;15.978;2022-12-07T08:56:59;98457.91;;;3.68;100.00
68169;BME280;54981;50.206;15.978;2022-12-07T08:59:26;98458.28;;;3.82;100.00
68169;BME280;54981;50.206;15.978;2022-12-07T09:01:52;98452.84;;;3.87;100.00
68169;BME280;54981;50.206;15.978;2022-12-07T09:04:17;98460.53;;;3.68;100.00
68169;BME280;54981;50.206;15.978;2022-12-07T09:06:43;98462.09;;;3.48;100.00
68169;BME280;54981;50.206;15.978;2022-12-07T09:09:09;98453.16;;;3.54;100.00
68169;BME280;54981;50.206;15.978;2022-12-07T09:11:36;98454.59;;;3.62;100.00
68169;BME280;54981;50.206;15.978;2022-12-07T09:14:01;98447.59;;;3.87;98.60
68169;BME280;54981;50.206;15.978;2022-12-07T09:16:26;98447.16;;;3.99;98.97
68169;BME280;54981;50.206;15.978;2022-12-07T09:18:52;98454.78;;;4.07;99.00
68169;BME280;54981;50.206;15.978;2022-12-07T09:21:17;98449.28;;;4.13;97.14
68169;BME280;54981;50.206;15.978;2022-12-07T09:23:43;98449.84;;;4.21;97.21
68169;BME280;54981;50.206;15.978;2022-12-07T09:26:08;98449.16;;;4.39;96.99
68169;BME280;54981;50.206;15.978;2022-12-07T09:28:33;98439.25;;;4.46;94.59
68169;BME280;54981;50.206;15.978;2022-12-07T09:30:59;98441.59;;;4.30;94.30
68169;BME280;54981;50.206;15.978;2022-12-07T09:33:25;98437.81;;;3.90;94.35
68169;BME280;54981;50.206;15.978;2022-12-07T09:35:51;98434.13;;;3.94;94.83
68169;BME280;54981;50.206;15.978;2022-12-07T09:38:17;98439.41;;;3.94;97.83
68169;BME280;54981;50.206;15.978;2022-12-07T09:40:43;98427.69;;;4.03;96.41
68169;BME280;54981;50.206;15.978;2022-12-07T09:43:18;98415.38;;;4.27;97.30
68169;BME280;54981;50.206;15.978;2022-12-07T09:45:45;98416.50;;;3.96;96.10
68169;BME280;54981;50.206;15.978;2022-12-07T09:48:18;98408.50;;;4.23;97.27
68169;BME280;54981;50.206;15.978;2022-12-07T09:50:46;98415.72;;;4.41;92.45
68169;BME280;54981;50.206;15.978;2022-12-07T09:53:28;98419.66;;;4.30;93.29
68169;BME280;54981;50.206;15.978;2022-12-07T09:55:55;98419.38;;;3.90;94.44
68169;BME280;54981;50.206;15.978;2022-12-07T09:58:25;98410.91;;;4.05;94.10
68169;BME280;54981;50.206;15.978;2022-12-07T10:03:38;98406.81;;;3.97;91.84
68169;BME280;54981;50.206;15.978;2022-12-07T10:06:05;98405.28;;;3.91;93.76
68169;BME280;54981;50.206;15.978;2022-12-07T10:08:32;98412.28;;;3.92;94.63
68169;BME280;54981;50.206;15.978;2022-12-07T10:10:58;98411.06;;;3.77;95.76
68169;BME280;54981;50.206;15.978;2022-12-07T10:13:38;98406.75;;;3.75;95.59
68169;BME280;54981;50.206;15.978;2022-12-07T10:16:05;98407.00;;;3.69;96.34
68169;BME280;54981;50.206;15.978;2022-12-07T10:21:02;98399.38;;;3.61;97.78
68169;BME280;54981;50.206;15.978;2022-12-07T10:23:28;98393.34;;;3.57;98.66
68169;BME280;54981;50.206;15.978;2022-12-07T10:25:53;98389.09;;;3.53;99.90
68169;BME280;54981;50.206;15.978;2022-12-07T10:28:21;98387.28;;;3.55;98.71
68169;BME280;54981;50.206;15.978;2022-12-07T10:35:53;98399.03;;;3.45;99.85
68169;BME280;54981;50.206;15.978;2022-12-07T10:38:18;98396.84;;;3.33;100.00
68169;BME280;54981;50.206;15.978;2022-12-07T10:40:44;98394.56;;;3.22;100.00
68169;BME280;54981;50.206;15.978;2022-12-07T10:43:17;98397.41;;;3.16;99.72
68169;BME280;54981;50.206;15.978;2022-12-07T10:53:54;98387.56;;;2.96;100.00
68169;BME280;54981;50.206;15.978;2022-12-07T10:57:23;98391.09;;;2.95;100.00
68169;BME280;54981;50.206;15.978;2022-12-07T10:59:55;98386.09;;;2.87;100.00
68169;BME280;54981;50.206;15.978;2022-12-07T11:08:09;98390.69;;;2.81;100.00
68169;BME280;54981;50.206;15.978;2022-12-07T11:13:27;98397.41;;;2.63;100.00
68169;BME280;54981;50.206;15.978;2022-12-07T11:18:37;98398.38;;;2.60;100.00
68169;BME280;54981;50.206;15.978;2022-12-07T11:21:32;98404.44;;;2.62;100.00
68169;BME280;54981;50.206;15.978;2022-12-07T11:24:15;98394.81;;;2.61;100.00
68169;BME280;54981;50.206;15.978;2022-12-07T11:32:17;98386.81;;;2.64;100.00
68169;BME280;54981;50.206;15.978;2022-12-07T11:37:30;98389.66;;;2.58;100.00
68169;BME280;54981;50.206;15.978;2022-12-07T11:40:17;98379.91;;;2.62;100.00
68169;BME280;54981;50.206;15.978;2022-12-07T11:42:55;98373.69;;;2.64;100.00
68169;BME280;54981;50.206;15.978;2022-12-07T11:45:27;98371.75;;;2.69;100.00
68169;BME280;54981;50.206;15.978;2022-12-07T11:48:10;98373.28;;;2.76;100.00
68169;BME280;54981;50.206;15.978;2022-12-07T11:53:17;98367.66;;;2.89;100.00
68169;BME280;54981;50.206;15.978;2022-12-07T11:55:55;98370.31;;;2.87;100.00
68169;BME280;54981;50.206;15.978;2022-12-07T12:06:40;98364.81;;;2.95;100.00
68169;BME280;54981;50.206;15.978;2022-12-07T12:20:00;98356.19;;;3.16;100.00
68169;BME280;54981;50.206;15.978;2022-12-07T12:22:36;98349.81;;;3.24;100.00
68169;BME280;54981;50.206;15.978;2022-12-07T12:25:06;98350.44;;;3.30;100.00
68169;BME280;54981;50.206;15.978;2022-12-07T12:27:37;98349.38;;;3.36;100.00
68169;BME280;54981;50.206;15.978;2022-12-07T12:30:25;98343.97;;;3.39;100.00
68169;BME280;54981;50.206;15.978;2022-12-07T12:32:51;98345.66;;;3.41;100.00
68169;BME280;54981;50.206;15.978;2022-12-07T12:37:52;98330.78;;;3.40;100.00
68169;BME280;54981;50.206;15.978;2022-12-07T12:42:51;98326.28;;;3.44;100.00
68169;BME280;54981;50.206;15.978;2022-12-07T12:45:28;98330.84;;;3.39;100.00
68169;BME280;54981;50.206;15.978;2022-12-07T12:50:29;98325.56;;;3.39;100.00
68169;BME280;54981;50.206;15.978;2022-12-07T13:03:53;98328.69;;;3.50;100.00
68169;BME280;54981;50.206;15.978;2022-12-07T13:06:32;98337.50;;;3.49;100.00
68169;BME280;54981;50.206;15.978;2022-12-07T13:09:01;98330.16;;;3.57;100.00
68169;BME280;54981;50.206;15.978;2022-12-07T13:11:35;98326.84;;;3.52;100.00
68169;BME280;54981;50.206;15.978;2022-12-07T13:17:04;98326.38;;;3.41;100.00
68169;BME280;54981;50.206;15.978;2022-12-07T13:24:58;98329.00;;;3.41;100.00
68169;BME280;54981;50.206;15.978;2022-12-07T13:27:27;98339.53;;;3.41;100.00
68169;BME280;54981;50.206;15.978;2022-12-07T13:29:54;98338.63;;;3.42;100.00
68169;BME280;54981;50.206;15.978;2022-12-07T13:32:26;98331.56;;;3.44;100.00
68169;BME280;54981;50.206;15.978;2022-12-07T13:34:52;98324.38;;;3.48;100.00
68169;BME280;54981;50.206;15.978;2022-12-07T13:37:28;98328.91;;;3.44;100.00
68169;BME280;54981;50.206;15.978;2022-12-07T13:39:57;98338.56;;;3.44;100.00
68169;BME280;54981;50.206;15.978;2022-12-07T13:42:28;98338.56;;;3.44;100.00
68169;BME280;54981;50.206;15.978;2022-12-07T13:44:55;98344.59;;;3.47;100.00
68169;BME280;54981;50.206;15.978;2022-12-07T13:49:55;98328.81;;;3.47;100.00
68169;BME280;54981;50.206;15.978;2022-12-07T13:52:24;98338.41;;;3.48;100.00
68169;BME280;54981;50.206;15.978;2022-12-07T13:57:22;98323.22;;;3.56;100.00
68169;BME280;54981;50.206;15.978;2022-12-07T13:59:49;98319.78;;;3.54;100.00
68169;BME280;54981;50.206;15.978;2022-12-07T14:02:25;98328.56;;;3.53;100.00
68169;BME280;54981;50.206;15.978;2022-12-07T14:04:51;98312.72;;;3.55;100.00
68169;BME280;54981;50.206;15.978;2022-12-07T14:07:27;98316.28;;;3.54;100.00
68169;BME280;54981;50.206;15.978;2022-12-07T14:09:58;98305.81;;;3.52;100.00
68169;BME280;54981;50.206;15.978;2022-12-07T14:12:25;98313.81;;;3.49;100.00
68169;BME280;54981;50.206;15.978;2022-12-07T14:14:51;98317.19;;;3.53;100.00
68169;BME280;54981;50.206;15.978;2022-12-07T14:17:19;98314.50;;;3.54;100.00
68169;BME280;54981;50.206;15.978;2022-12-07T14:19:56;98316.44;;;3.49;100.00
68169;BME280;54981;50.206;15.978;2022-12-07T14:22:25;98310.22;;;3.52;100.00
68169;BME280;54981;50.206;15.978;2022-12-07T14:24:58;98314.84;;;3.45;100.00
68169;BME280;54981;50.206;15.978;2022-12-07T14:27:24;98321.72;;;3.49;100.00
68169;BME280;54981;50.206;15.978;2022-12-07T14:29:55;98321.72;;;3.49;100.00
68169;BME280;54981;50.206;15.978;2022-12-07T14:34:59;98318.03;;;3.53;100.00
68169;BME280;54981;50.206;15.978;2022-12-07T14:37:25;98320.75;;;3.52;100.00
68169;BME280;54981;50.206;15.978;2022-12-07T14:39:51;98315.47;;;3.52;100.00
68169;BME280;54981;50.206;15.978;2022-12-07T14:42:17;98309.53;;;3.47;100.00
68169;BME280;54981;50.206;15.978;2022-12-07T14:44:43;98307.75;;;3.47;100.00
68169;BME280;54981;50.206;15.978;2022-12-07T14:47:11;98306.00;;;3.46;100.00
68169;BME280;54981;50.206;15.978;2022-12-07T14:49:37;98313.13;;;3.44;100.00
68169;BME280;54981;50.206;15.978;2022-12-07T14:52:03;98313.34;;;3.38;100.00
68169;BME280;54981;50.206;15.978;2022-12-07T14:54:31;98302.69;;;3.41;100.00
68169;BME280;54981;50.206;15.978;2022-12-07T14:56:57;98303.78;;;3.35;100.00
68169;BME280;54981;50.206;15.978;2022-12-07T14:59:22;98298.56;;;3.34;100.00
68169;BME280;54981;50.206;15.978;2022-12-07T15:01:48;98305.41;;;3.39;100.00
68169;BME280;54981;50.206;15.978;2022-12-07T15:04:13;98303.13;;;3.29;100.00